Terminal Aerodrome Forecast
Issued by NWS Albany, NY

Home | Current Version | Previous Version | Text Only | Print | Product List | Glossary On
Versions: 1 2 3 4 5 6 7 8 9 10 11 12 13 14 15 16 17 18 19 20 21 22
000
FTUS41 KALY 261908 AAA
TAFGFL
TAF AMD
KGFL 261908Z 2619/2718 35003KT 2SM -RA BR BKN005 OVC009
      TEMPO 2619/2623 3/4SM RA BR BKN002 OVC006
     FM270200 34003KT P6SM VCSH OVC015
     FM270600 34003KT P6SM VCSH OVC035
     FM271400 35005KT P6SM VCSH BKN035=

USA.gov is the U.S. government's official web portal to all federal, state and local government web resources and services.